sensor_id;sensor_type;location;lat;lon;timestamp;P1;durP1;ratioP1;P2;durP2;ratioP2
31043;SDS011;17710;52.520;13.352;2023-03-25T00:01:29;4.00;;;1.75;;
31043;SDS011;17710;52.520;13.352;2023-03-25T00:03:58;3.20;;;1.42;;
31043;SDS011;17710;52.520;13.352;2023-03-25T00:06:25;2.72;;;1.33;;
31043;SDS011;17710;52.520;13.352;2023-03-25T00:08:52;1.88;;;1.30;;
31043;SDS011;17710;52.520;13.352;2023-03-25T00:11:18;2.70;;;1.33;;
31043;SDS011;17710;52.520;13.352;2023-03-25T00:13:45;4.68;;;1.42;;
31043;SDS011;17710;52.520;13.352;2023-03-25T00:16:12;4.32;;;1.52;;
31043;SDS011;17710;52.520;13.352;2023-03-25T00:18:40;5.78;;;1.15;;
31043;SDS011;17710;52.520;13.352;2023-03-25T00:21:08;3.72;;;1.75;;
31043;SDS011;17710;52.520;13.352;2023-03-25T00:23:35;3.67;;;1.40;;
31043;SDS011;17710;52.520;13.352;2023-03-25T00:26:03;2.88;;;1.25;;
31043;SDS011;17710;52.520;13.352;2023-03-25T00:28:31;5.20;;;1.48;;
31043;SDS011;17710;52.520;13.352;2023-03-25T00:30:59;2.38;;;1.48;;
31043;SDS011;17710;52.520;13.352;2023-03-25T00:33:26;5.07;;;1.40;;
31043;SDS011;17710;52.520;13.352;2023-03-25T00:35:57;4.78;;;1.63;;
31043;SDS011;17710;52.520;13.352;2023-03-25T00:38:26;3.92;;;1.17;;
31043;SDS011;17710;52.520;13.352;2023-03-25T00:40:57;3.47;;;1.27;;
31043;SDS011;17710;52.520;13.352;2023-03-25T00:43:32;2.78;;;1.08;;
31043;SDS011;17710;52.520;13.352;2023-03-25T00:45:59;4.97;;;1.52;;
31043;SDS011;17710;52.520;13.352;2023-03-25T00:48:26;3.55;;;1.60;;
31043;SDS011;17710;52.520;13.352;2023-03-25T00:50:53;3.45;;;1.25;;
31043;SDS011;17710;52.520;13.352;2023-03-25T00:53:20;2.20;;;1.15;;
31043;SDS011;17710;52.520;13.352;2023-03-25T00:55:48;3.20;;;1.60;;
31043;SDS011;17710;52.520;13.352;2023-03-25T00:58:15;4.07;;;1.20;;
31043;SDS011;17710;52.520;13.352;2023-03-25T01:00:41;2.60;;;1.42;;
31043;SDS011;17710;52.520;13.352;2023-03-25T01:03:07;2.63;;;1.38;;
31043;SDS011;17710;52.520;13.352;2023-03-25T01:05:34;3.33;;;1.20;;
31043;SDS011;17710;52.520;13.352;2023-03-25T01:08:00;5.07;;;1.55;;
31043;SDS011;17710;52.520;13.352;2023-03-25T01:10:27;3.88;;;1.23;;
31043;SDS011;17710;52.520;13.352;2023-03-25T01:12:55;5.22;;;1.50;;
31043;SDS011;17710;52.520;13.352;2023-03-25T01:15:21;4.43;;;1.30;;
31043;SDS011;17710;52.520;13.352;2023-03-25T01:17:48;6.18;;;1.50;;
31043;SDS011;17710;52.520;13.352;2023-03-25T01:20:14;3.50;;;1.10;;
31043;SDS011;17710;52.520;13.352;2023-03-25T01:22:41;4.75;;;1.20;;
31043;SDS011;17710;52.520;13.352;2023-03-25T01:25:08;5.55;;;1.83;;
31043;SDS011;17710;52.520;13.352;2023-03-25T01:27:34;3.03;;;0.90;;
31043;SDS011;17710;52.520;13.352;2023-03-25T01:30:03;4.43;;;1.65;;
31043;SDS011;17710;52.520;13.352;2023-03-25T01:32:29;6.63;;;1.13;;
31043;SDS011;17710;52.520;13.352;2023-03-25T01:34:56;4.25;;;1.35;;
31043;SDS011;17710;52.520;13.352;2023-03-25T01:37:22;2.88;;;1.00;;
31043;SDS011;17710;52.520;13.352;2023-03-25T01:39:49;8.00;;;2.20;;
31043;SDS011;17710;52.520;13.352;2023-03-25T01:42:16;5.50;;;1.67;;
31043;SDS011;17710;52.520;13.352;2023-03-25T01:47:44;4.57;;;1.38;;
31043;SDS011;17710;52.520;13.352;2023-03-25T01:50:12;2.78;;;1.17;;
31043;SDS011;17710;52.520;13.352;2023-03-25T01:52:40;3.70;;;1.20;;
31043;SDS011;17710;52.520;13.352;2023-03-25T01:55:09;3.15;;;1.00;;
31043;SDS011;17710;52.520;13.352;2023-03-25T01:57:36;4.65;;;1.00;;
31043;SDS011;17710;52.520;13.352;2023-03-25T02:00:08;2.35;;;1.15;;
31043;SDS011;17710;52.520;13.352;2023-03-25T02:02:36;2.08;;;1.05;;
31043;SDS011;17710;52.520;13.352;2023-03-25T02:05:04;3.08;;;1.38;;
31043;SDS011;17710;52.520;13.352;2023-03-25T02:07:36;4.72;;;1.50;;
31043;SDS011;17710;52.520;13.352;2023-03-25T02:10:07;4.15;;;1.20;;
31043;SDS011;17710;52.520;13.352;2023-03-25T02:12:35;4.43;;;1.23;;
31043;SDS011;17710;52.520;13.352;2023-03-25T02:15:03;2.00;;;1.17;;
31043;SDS011;17710;52.520;13.352;2023-03-25T02:17:32;3.30;;;1.00;;
31043;SDS011;17710;52.520;13.352;2023-03-25T02:20:13;4.10;;;1.02;;
31043;SDS011;17710;52.520;13.352;2023-03-25T02:23:01;7.03;;;1.40;;
31043;SDS011;17710;52.520;13.352;2023-03-25T02:26:10;4.40;;;1.10;;
31043;SDS011;17710;52.520;13.352;2023-03-25T02:29:02;2.58;;;1.30;;
31043;SDS011;17710;52.520;13.352;2023-03-25T02:31:45;7.63;;;1.38;;
31043;SDS011;17710;52.520;13.352;2023-03-25T02:34:39;2.35;;;0.80;;
31043;SDS011;17710;52.520;13.352;2023-03-25T02:40:31;3.90;;;1.23;;
31043;SDS011;17710;52.520;13.352;2023-03-25T02:43:02;3.10;;;1.00;;
31043;SDS011;17710;52.520;13.352;2023-03-25T02:45:36;4.10;;;1.17;;
31043;SDS011;17710;52.520;13.352;2023-03-25T02:48:09;3.63;;;1.23;;
31043;SDS011;17710;52.520;13.352;2023-03-25T02:50:40;3.28;;;1.02;;
31043;SDS011;17710;52.520;13.352;2023-03-25T02:53:13;1.27;;;0.70;;
31043;SDS011;17710;52.520;13.352;2023-03-25T02:55:45;3.15;;;0.70;;
31043;SDS011;17710;52.520;13.352;2023-03-25T02:58:14;3.63;;;1.00;;
31043;SDS011;17710;52.520;13.352;2023-03-25T03:00:45;4.70;;;1.00;;
31043;SDS011;17710;52.520;13.352;2023-03-25T03:03:14;2.78;;;0.95;;
31043;SDS011;17710;52.520;13.352;2023-03-25T03:05:41;5.40;;;1.48;;
31043;SDS011;17710;52.520;13.352;2023-03-25T03:08:16;1.48;;;0.93;;
31043;SDS011;17710;52.520;13.352;2023-03-25T03:10:54;2.60;;;0.93;;
31043;SDS011;17710;52.520;13.352;2023-03-25T03:13:32;5.68;;;1.02;;
31043;SDS011;17710;52.520;13.352;2023-03-25T03:16:05;2.03;;;1.00;;
31043;SDS011;17710;52.520;13.352;2023-03-25T03:18:42;4.25;;;0.90;;
31043;SDS011;17710;52.520;13.352;2023-03-25T03:21:16;4.20;;;1.00;;
31043;SDS011;17710;52.520;13.352;2023-03-25T03:23:50;4.40;;;1.05;;
31043;SDS011;17710;52.520;13.352;2023-03-25T03:26:24;1.77;;;1.17;;
31043;SDS011;17710;52.520;13.352;2023-03-25T03:28:59;2.97;;;1.13;;
31043;SDS011;17710;52.520;13.352;2023-03-25T03:31:33;3.33;;;1.05;;
31043;SDS011;17710;52.520;13.352;2023-03-25T03:34:04;2.13;;;0.80;;
31043;SDS011;17710;52.520;13.352;2023-03-25T03:36:37;5.03;;;1.30;;
31043;SDS011;17710;52.520;13.352;2023-03-25T03:39:08;1.58;;;0.95;;
31043;SDS011;17710;52.520;13.352;2023-03-25T03:41:40;4.97;;;1.33;;
31043;SDS011;17710;52.520;13.352;2023-03-25T03:44:11;5.90;;;1.00;;
31043;SDS011;17710;52.520;13.352;2023-03-25T03:46:40;3.50;;;1.08;;
31043;SDS011;17710;52.520;13.352;2023-03-25T03:49:12;3.58;;;1.25;;
31043;SDS011;17710;52.520;13.352;2023-03-25T03:51:44;5.85;;;1.30;;
31043;SDS011;17710;52.520;13.352;2023-03-25T03:54:16;2.97;;;0.90;;
31043;SDS011;17710;52.520;13.352;2023-03-25T03:56:48;2.13;;;1.08;;
31043;SDS011;17710;52.520;13.352;2023-03-25T03:59:21;3.92;;;1.00;;
31043;SDS011;17710;52.520;13.352;2023-03-25T04:01:54;5.20;;;1.10;;
31043;SDS011;17710;52.520;13.352;2023-03-25T04:04:24;3.88;;;1.10;;
31043;SDS011;17710;52.520;13.352;2023-03-25T04:06:53;3.95;;;0.90;;
31043;SDS011;17710;52.520;13.352;2023-03-25T04:09:24;4.93;;;1.05;;
31043;SDS011;17710;52.520;13.352;2023-03-25T04:11:58;3.63;;;0.93;;
31043;SDS011;17710;52.520;13.352;2023-03-25T04:14:28;3.58;;;1.05;;
31043;SDS011;17710;52.520;13.352;2023-03-25T04:16:55;2.30;;;0.90;;
31043;SDS011;17710;52.520;13.352;2023-03-25T04:19:23;2.08;;;0.80;;
31043;SDS011;17710;52.520;13.352;2023-03-25T04:21:50;2.47;;;1.10;;
31043;SDS011;17710;52.520;13.352;2023-03-25T04:24:17;5.28;;;0.77;;
31043;SDS011;17710;52.520;13.352;2023-03-25T04:26:46;1.58;;;0.85;;
31043;SDS011;17710;52.520;13.352;2023-03-25T04:29:13;2.30;;;0.68;;
31043;SDS011;17710;52.520;13.352;2023-03-25T04:31:40;3.45;;;0.93;;
31043;SDS011;17710;52.520;13.352;2023-03-25T04:34:10;6.65;;;1.15;;
31043;SDS011;17710;52.520;13.352;2023-03-25T04:36:38;5.85;;;1.00;;
31043;SDS011;17710;52.520;13.352;2023-03-25T04:39:07;6.15;;;1.00;;
31043;SDS011;17710;52.520;13.352;2023-03-25T04:41:34;3.47;;;1.00;;
31043;SDS011;17710;52.520;13.352;2023-03-25T04:44:02;4.97;;;1.00;;
31043;SDS011;17710;52.520;13.352;2023-03-25T04:46:31;5.30;;;1.65;;
31043;SDS011;17710;52.520;13.352;2023-03-25T04:48:58;2.50;;;0.70;;
31043;SDS011;17710;52.520;13.352;2023-03-25T04:51:27;3.97;;;0.60;;
31043;SDS011;17710;52.520;13.352;2023-03-25T04:53:54;4.88;;;0.98;;
31043;SDS011;17710;52.520;13.352;2023-03-25T04:56:21;4.90;;;1.05;;
31043;SDS011;17710;52.520;13.352;2023-03-25T04:58:47;4.32;;;0.57;;
31043;SDS011;17710;52.520;13.352;2023-03-25T05:01:18;4.93;;;1.27;;
31043;SDS011;17710;52.520;13.352;2023-03-25T05:03:48;3.38;;;1.05;;
31043;SDS011;17710;52.520;13.352;2023-03-25T05:06:15;1.95;;;0.75;;
31043;SDS011;17710;52.520;13.352;2023-03-25T05:08:41;3.67;;;0.90;;
31043;SDS011;17710;52.520;13.352;2023-03-25T05:11:08;5.70;;;0.85;;
31043;SDS011;17710;52.520;13.352;2023-03-25T05:13:35;3.33;;;1.02;;
31043;SDS011;17710;52.520;13.352;2023-03-25T05:16:01;5.15;;;0.80;;
31043;SDS011;17710;52.520;13.352;2023-03-25T05:18:29;4.82;;;1.00;;
31043;SDS011;17710;52.520;13.352;2023-03-25T05:20:56;5.05;;;0.90;;
31043;SDS011;17710;52.520;13.352;2023-03-25T05:23:24;1.05;;;0.57;;
31043;SDS011;17710;52.520;13.352;2023-03-25T05:25:51;2.47;;;0.68;;
31043;SDS011;17710;52.520;13.352;2023-03-25T05:28:17;3.22;;;0.50;;
31043;SDS011;17710;52.520;13.352;2023-03-25T05:30:45;2.95;;;0.80;;
31043;SDS011;17710;52.520;13.352;2023-03-25T05:33:13;3.92;;;1.02;;
31043;SDS011;17710;52.520;13.352;2023-03-25T05:35:42;3.58;;;0.85;;
31043;SDS011;17710;52.520;13.352;2023-03-25T05:38:09;5.38;;;0.88;;
31043;SDS011;17710;52.520;13.352;2023-03-25T05:40:37;5.80;;;0.90;;
31043;SDS011;17710;52.520;13.352;2023-03-25T05:43:05;5.00;;;0.65;;
31043;SDS011;17710;52.520;13.352;2023-03-25T05:45:32;1.48;;;0.80;;
31043;SDS011;17710;52.520;13.352;2023-03-25T05:47:59;6.07;;;0.80;;
31043;SDS011;17710;52.520;13.352;2023-03-25T05:50:26;3.58;;;0.68;;
31043;SDS011;17710;52.520;13.352;2023-03-25T05:52:54;4.63;;;0.77;;
31043;SDS011;17710;52.520;13.352;2023-03-25T05:55:21;6.43;;;0.75;;
31043;SDS011;17710;52.520;13.352;2023-03-25T05:57:49;3.47;;;0.80;;
31043;SDS011;17710;52.520;13.352;2023-03-25T06:00:16;4.35;;;1.00;;
31043;SDS011;17710;52.520;13.352;2023-03-25T06:02:45;2.10;;;0.60;;
31043;SDS011;17710;52.520;13.352;2023-03-25T06:05:13;2.55;;;0.63;;
31043;SDS011;17710;52.520;13.352;2023-03-25T06:07:41;6.35;;;0.50;;
31043;SDS011;17710;52.520;13.352;2023-03-25T06:10:09;3.72;;;0.50;;
31043;SDS011;17710;52.520;13.352;2023-03-25T06:12:36;2.22;;;0.50;;
31043;SDS011;17710;52.520;13.352;2023-03-25T06:15:05;4.45;;;0.90;;
31043;SDS011;17710;52.520;13.352;2023-03-25T06:17:32;1.58;;;0.68;;
31043;SDS011;17710;52.520;13.352;2023-03-25T06:20:02;1.08;;;0.32;;
31043;SDS011;17710;52.520;13.352;2023-03-25T06:22:35;2.60;;;0.40;;
31043;SDS011;17710;52.520;13.352;2023-03-25T06:25:05;4.60;;;0.40;;
31043;SDS011;17710;52.520;13.352;2023-03-25T06:27:34;2.95;;;0.50;;
31043;SDS011;17710;52.520;13.352;2023-03-25T06:30:05;2.17;;;0.50;;
31043;SDS011;17710;52.520;13.352;2023-03-25T06:32:33;5.00;;;0.95;;
31043;SDS011;17710;52.520;13.352;2023-03-25T06:35:00;2.72;;;0.57;;
31043;SDS011;17710;52.520;13.352;2023-03-25T06:37:26;1.38;;;0.40;;
31043;SDS011;17710;52.520;13.352;2023-03-25T06:39:53;2.47;;;0.65;;
31043;SDS011;17710;52.520;13.352;2023-03-25T06:42:20;3.45;;;0.60;;
31043;SDS011;17710;52.520;13.352;2023-03-25T06:44:48;2.00;;;0.40;;
31043;SDS011;17710;52.520;13.352;2023-03-25T06:47:15;2.45;;;0.40;;
31043;SDS011;17710;52.520;13.352;2023-03-25T06:49:41;3.30;;;0.65;;
31043;SDS011;17710;52.520;13.352;2023-03-25T06:52:08;3.17;;;0.57;;
31043;SDS011;17710;52.520;13.352;2023-03-25T06:54:35;7.50;;;0.75;;
31043;SDS011;17710;52.520;13.352;2023-03-25T06:57:02;4.28;;;0.47;;
31043;SDS011;17710;52.520;13.352;2023-03-25T06:59:29;1.50;;;0.32;;
31043;SDS011;17710;52.520;13.352;2023-03-25T07:01:57;4.55;;;0.77;;
31043;SDS011;17710;52.520;13.352;2023-03-25T07:04:23;1.27;;;0.50;;
31043;SDS011;17710;52.520;13.352;2023-03-25T07:06:50;3.03;;;0.60;;
31043;SDS011;17710;52.520;13.352;2023-03-25T07:09:17;1.33;;;0.32;;
31043;SDS011;17710;52.520;13.352;2023-03-25T07:11:44;4.03;;;0.50;;
31043;SDS011;17710;52.520;13.352;2023-03-25T07:14:10;1.58;;;0.38;;
31043;SDS011;17710;52.520;13.352;2023-03-25T07:16:36;2.67;;;0.60;;
31043;SDS011;17710;52.520;13.352;2023-03-25T07:19:04;1.60;;;0.35;;
31043;SDS011;17710;52.520;13.352;2023-03-25T07:21:31;2.95;;;0.50;;
31043;SDS011;17710;52.520;13.352;2023-03-25T07:23:57;3.75;;;0.68;;
31043;SDS011;17710;52.520;13.352;2023-03-25T07:26:23;1.83;;;0.50;;
31043;SDS011;17710;52.520;13.352;2023-03-25T07:28:50;3.20;;;0.57;;
31043;SDS011;17710;52.520;13.352;2023-03-25T07:31:16;3.05;;;0.68;;
31043;SDS011;17710;52.520;13.352;2023-03-25T07:33:45;2.45;;;0.50;;
31043;SDS011;17710;52.520;13.352;2023-03-25T07:36:16;1.92;;;0.50;;
31043;SDS011;17710;52.520;13.352;2023-03-25T07:38:45;1.85;;;0.60;;
31043;SDS011;17710;52.520;13.352;2023-03-25T07:41:12;3.63;;;0.68;;
31043;SDS011;17710;52.520;13.352;2023-03-25T07:43:38;2.67;;;0.70;;
31043;SDS011;17710;52.520;13.352;2023-03-25T07:46:05;8.25;;;1.58;;
31043;SDS011;17710;52.520;13.352;2023-03-25T07:48:32;2.30;;;0.60;;
31043;SDS011;17710;52.520;13.352;2023-03-25T07:50:58;3.53;;;0.80;;
31043;SDS011;17710;52.520;13.352;2023-03-25T07:53:26;5.13;;;1.63;;
31043;SDS011;17710;52.520;13.352;2023-03-25T07:55:52;4.55;;;0.50;;
31043;SDS011;17710;52.520;13.352;2023-03-25T07:58:19;2.25;;;0.57;;
31043;SDS011;17710;52.520;13.352;2023-03-25T08:00:46;2.42;;;0.60;;
31043;SDS011;17710;52.520;13.352;2023-03-25T08:03:12;4.00;;;0.60;;
31043;SDS011;17710;52.520;13.352;2023-03-25T08:05:42;3.22;;;0.50;;
31043;SDS011;17710;52.520;13.352;2023-03-25T08:08:10;2.30;;;0.70;;
31043;SDS011;17710;52.520;13.352;2023-03-25T08:10:38;2.83;;;0.70;;
31043;SDS011;17710;52.520;13.352;2023-03-25T08:13:07;3.53;;;0.52;;
31043;SDS011;17710;52.520;13.352;2023-03-25T08:15:34;3.17;;;0.63;;
31043;SDS011;17710;52.520;13.352;2023-03-25T08:18:01;2.38;;;0.70;;
31043;SDS011;17710;52.520;13.352;2023-03-25T08:20:29;6.05;;;0.63;;
31043;SDS011;17710;52.520;13.352;2023-03-25T08:22:55;4.47;;;0.50;;
31043;SDS011;17710;52.520;13.352;2023-03-25T08:25:22;5.25;;;0.70;;
31043;SDS011;17710;52.520;13.352;2023-03-25T08:27:50;2.88;;;0.70;;
31043;SDS011;17710;52.520;13.352;2023-03-25T08:30:17;2.47;;;0.73;;
31043;SDS011;17710;52.520;13.352;2023-03-25T08:32:44;3.95;;;0.60;;
31043;SDS011;17710;52.520;13.352;2023-03-25T08:35:11;2.65;;;0.50;;
31043;SDS011;17710;52.520;13.352;2023-03-25T08:37:38;1.77;;;0.50;;
31043;SDS011;17710;52.520;13.352;2023-03-25T08:40:05;5.75;;;0.90;;
31043;SDS011;17710;52.520;13.352;2023-03-25T08:42:34;2.22;;;0.60;;
31043;SDS011;17710;52.520;13.352;2023-03-25T08:45:02;1.70;;;0.50;;
31043;SDS011;17710;52.520;13.352;2023-03-25T08:47:30;2.08;;;0.50;;
31043;SDS011;17710;52.520;13.352;2023-03-25T08:49:56;2.25;;;0.50;;
31043;SDS011;17710;52.520;13.352;2023-03-25T08:52:23;3.35;;;0.50;;
31043;SDS011;17710;52.520;13.352;2023-03-25T08:54:50;1.55;;;0.47;;
31043;SDS011;17710;52.520;13.352;2023-03-25T08:57:17;4.85;;;0.70;;
31043;SDS011;17710;52.520;13.352;2023-03-25T08:59:43;1.20;;;0.50;;
31043;SDS011;17710;52.520;13.352;2023-03-25T09:02:11;1.90;;;0.50;;
31043;SDS011;17710;52.520;13.352;2023-03-25T09:04:38;2.88;;;0.45;;
31043;SDS011;17710;52.520;13.352;2023-03-25T09:07:04;1.65;;;0.20;;
31043;SDS011;17710;52.520;13.352;2023-03-25T09:09:35;3.85;;;0.50;;
31043;SDS011;17710;52.520;13.352;2023-03-25T09:12:03;2.20;;;0.47;;
31043;SDS011;17710;52.520;13.352;2023-03-25T09:14:30;1.52;;;0.32;;
31043;SDS011;17710;52.520;13.352;2023-03-25T09:16:56;1.10;;;0.50;;
31043;SDS011;17710;52.520;13.352;2023-03-25T09:19:24;0.85;;;0.40;;
31043;SDS011;17710;52.520;13.352;2023-03-25T09:21:51;1.52;;;0.65;;
31043;SDS011;17710;52.520;13.352;2023-03-25T09:24:17;0.43;;;0.30;;
31043;SDS011;17710;52.520;13.352;2023-03-25T09:26:46;2.88;;;0.60;;
31043;SDS011;17710;52.520;13.352;2023-03-25T09:29:13;1.42;;;0.40;;
31043;SDS011;17710;52.520;13.352;2023-03-25T09:31:39;8.63;;;0.55;;
31043;SDS011;17710;52.520;13.352;2023-03-25T09:34:06;2.00;;;0.60;;
31043;SDS011;17710;52.520;13.352;2023-03-25T09:36:34;2.97;;;0.60;;
31043;SDS011;17710;52.520;13.352;2023-03-25T09:39:01;3.55;;;0.50;;
31043;SDS011;17710;52.520;13.352;2023-03-25T09:41:31;1.60;;;0.43;;
31043;SDS011;17710;52.520;13.352;2023-03-25T09:44:10;2.83;;;0.40;;
31043;SDS011;17710;52.520;13.352;2023-03-25T09:46:44;8.77;;;1.15;;
31043;SDS011;17710;52.520;13.352;2023-03-25T09:49:11;5.60;;;0.70;;
31043;SDS011;17710;52.520;13.352;2023-03-25T09:51:43;4.18;;;0.57;;
31043;SDS011;17710;52.520;13.352;2023-03-25T09:54:14;1.60;;;0.47;;
31043;SDS011;17710;52.520;13.352;2023-03-25T09:56:45;3.00;;;0.55;;
31043;SDS011;17710;52.520;13.352;2023-03-25T09:59:13;3.63;;;0.65;;
31043;SDS011;17710;52.520;13.352;2023-03-25T10:01:44;0.65;;;0.30;;
31043;SDS011;17710;52.520;13.352;2023-03-25T10:04:22;0.38;;;0.30;;
31043;SDS011;17710;52.520;13.352;2023-03-25T10:07:08;1.60;;;0.40;;
31043;SDS011;17710;52.520;13.352;2023-03-25T10:09:49;4.82;;;0.63;;
31043;SDS011;17710;52.520;13.352;2023-03-25T10:12:25;1.25;;;0.50;;
31043;SDS011;17710;52.520;13.352;2023-03-25T10:15:02;1.80;;;0.40;;
31043;SDS011;17710;52.520;13.352;2023-03-25T10:17:41;1.50;;;0.22;;
31043;SDS011;17710;52.520;13.352;2023-03-25T10:20:20;2.10;;;0.70;;
31043;SDS011;17710;52.520;13.352;2023-03-25T10:23:02;2.00;;;0.50;;
31043;SDS011;17710;52.520;13.352;2023-03-25T10:25:33;2.53;;;1.15;;
31043;SDS011;17710;52.520;13.352;2023-03-25T10:28:05;1.08;;;0.55;;
31043;SDS011;17710;52.520;13.352;2023-03-25T10:30:42;3.85;;;1.15;;
31043;SDS011;17710;52.520;13.352;2023-03-25T10:33:14;0.98;;;0.40;;
31043;SDS011;17710;52.520;13.352;2023-03-25T10:35:44;3.10;;;0.55;;
31043;SDS011;17710;52.520;13.352;2023-03-25T10:38:16;5.60;;;0.60;;
31043;SDS011;17710;52.520;13.352;2023-03-25T10:40:45;3.10;;;0.50;;
31043;SDS011;17710;52.520;13.352;2023-03-25T10:43:14;4.10;;;0.50;;
31043;SDS011;17710;52.520;13.352;2023-03-25T10:45:46;3.60;;;0.90;;
31043;SDS011;17710;52.520;13.352;2023-03-25T10:48:15;1.98;;;0.50;;
31043;SDS011;17710;52.520;13.352;2023-03-25T10:50:50;0.40;;;0.30;;
31043;SDS011;17710;52.520;13.352;2023-03-25T10:53:21;1.30;;;0.50;;
31043;SDS011;17710;52.520;13.352;2023-03-25T10:55:53;4.07;;;0.50;;
31043;SDS011;17710;52.520;13.352;2023-03-25T10:58:23;3.33;;;0.50;;
31043;SDS011;17710;52.520;13.352;2023-03-25T11:00:51;1.13;;;0.45;;
31043;SDS011;17710;52.520;13.352;2023-03-25T11:03:19;2.08;;;0.50;;
31043;SDS011;17710;52.520;13.352;2023-03-25T11:05:50;0.88;;;0.45;;
31043;SDS011;17710;52.520;13.352;2023-03-25T11:08:19;1.75;;;0.70;;
31043;SDS011;17710;52.520;13.352;2023-03-25T11:10:48;1.48;;;0.50;;
31043;SDS011;17710;52.520;13.352;2023-03-25T11:13:22;2.65;;;0.50;;
31043;SDS011;17710;52.520;13.352;2023-03-25T11:15:50;2.30;;;0.52;;
31043;SDS011;17710;52.520;13.352;2023-03-25T11:18:19;0.75;;;0.30;;
31043;SDS011;17710;52.520;13.352;2023-03-25T11:20:50;2.13;;;0.50;;
31043;SDS011;17710;52.520;13.352;2023-03-25T11:23:23;1.40;;;0.40;;
31043;SDS011;17710;52.520;13.352;2023-03-25T11:25:53;5.00;;;0.60;;
31043;SDS011;17710;52.520;13.352;2023-03-25T11:28:21;1.15;;;0.30;;
31043;SDS011;17710;52.520;13.352;2023-03-25T11:31:07;1.33;;;0.45;;
31043;SDS011;17710;52.520;13.352;2023-03-25T11:33:36;0.80;;;0.40;;
31043;SDS011;17710;52.520;13.352;2023-03-25T11:36:09;2.97;;;0.60;;
31043;SDS011;17710;52.520;13.352;2023-03-25T11:38:39;0.85;;;0.30;;
31043;SDS011;17710;52.520;13.352;2023-03-25T11:41:06;1.30;;;0.30;;
31043;SDS011;17710;52.520;13.352;2023-03-25T11:43:33;1.85;;;0.50;;
31043;SDS011;17710;52.520;13.352;2023-03-25T11:46:06;2.80;;;0.68;;
31043;SDS011;17710;52.520;13.352;2023-03-25T11:48:36;0.50;;;0.30;;
31043;SDS011;17710;52.520;13.352;2023-03-25T11:51:06;0.50;;;0.40;;
31043;SDS011;17710;52.520;13.352;2023-03-25T11:53:42;1.08;;;0.40;;
31043;SDS011;17710;52.520;13.352;2023-03-25T11:56:10;1.02;;;0.50;;
31043;SDS011;17710;52.520;13.352;2023-03-25T11:58:44;1.05;;;0.57;;
31043;SDS011;17710;52.520;13.352;2023-03-25T12:01:19;4.25;;;0.98;;
31043;SDS011;17710;52.520;13.352;2023-03-25T12:03:48;1.88;;;0.40;;
31043;SDS011;17710;52.520;13.352;2023-03-25T12:06:17;2.22;;;0.50;;
31043;SDS011;17710;52.520;13.352;2023-03-25T12:08:51;2.33;;;0.30;;
31043;SDS011;17710;52.520;13.352;2023-03-25T12:11:22;0.87;;;0.37;;
31043;SDS011;17710;52.520;13.352;2023-03-25T12:14:00;1.25;;;0.60;;
31043;SDS011;17710;52.520;13.352;2023-03-25T12:16:44;0.95;;;0.45;;
31043;SDS011;17710;52.520;13.352;2023-03-25T12:19:19;2.28;;;0.40;;
31043;SDS011;17710;52.520;13.352;2023-03-25T12:24:36;1.00;;;0.40;;
31043;SDS011;17710;52.520;13.352;2023-03-25T12:27:27;1.15;;;0.22;;
31043;SDS011;17710;52.520;13.352;2023-03-25T12:30:07;3.03;;;0.43;;
31043;SDS011;17710;52.520;13.352;2023-03-25T12:32:45;4.35;;;0.50;;
31043;SDS011;17710;52.520;13.352;2023-03-25T12:35:21;0.77;;;0.32;;
31043;SDS011;17710;52.520;13.352;2023-03-25T12:38:09;0.95;;;0.32;;
31043;SDS011;17710;52.520;13.352;2023-03-25T12:40:58;1.45;;;0.30;;
31043;SDS011;17710;52.520;13.352;2023-03-25T12:43:37;0.90;;;0.22;;
31043;SDS011;17710;52.520;13.352;2023-03-25T12:46:18;0.60;;;0.30;;
31043;SDS011;17710;52.520;13.352;2023-03-25T12:49:08;1.00;;;0.38;;
31043;SDS011;17710;52.520;13.352;2023-03-25T12:51:49;0.90;;;0.20;;
31043;SDS011;17710;52.520;13.352;2023-03-25T12:54:30;1.20;;;0.30;;
31043;SDS011;17710;52.520;13.352;2023-03-25T12:57:11;1.40;;;0.22;;
31043;SDS011;17710;52.520;13.352;2023-03-25T12:59:54;0.98;;;0.13;;
31043;SDS011;17710;52.520;13.352;2023-03-25T13:02:43;0.45;;;0.30;;
31043;SDS011;17710;52.520;13.352;2023-03-25T13:05:29;0.22;;;0.20;;
31043;SDS011;17710;52.520;13.352;2023-03-25T13:08:05;1.92;;;0.43;;
31043;SDS011;17710;52.520;13.352;2023-03-25T13:10:37;0.65;;;0.20;;
31043;SDS011;17710;52.520;13.352;2023-03-25T13:13:09;0.38;;;0.30;;
31043;SDS011;17710;52.520;13.352;2023-03-25T13:15:40;2.85;;;0.30;;
31043;SDS011;17710;52.520;13.352;2023-03-25T13:18:09;2.15;;;0.25;;
31043;SDS011;17710;52.520;13.352;2023-03-25T13:20:40;3.05;;;0.80;;
31043;SDS011;17710;52.520;13.352;2023-03-25T13:23:10;0.75;;;0.40;;
31043;SDS011;17710;52.520;13.352;2023-03-25T13:25:46;2.03;;;0.40;;
31043;SDS011;17710;52.520;13.352;2023-03-25T13:28:20;3.35;;;0.40;;
31043;SDS011;17710;52.520;13.352;2023-03-25T13:30:49;1.30;;;0.45;;
31043;SDS011;17710;52.520;13.352;2023-03-25T13:33:18;1.33;;;0.40;;
31043;SDS011;17710;52.520;13.352;2023-03-25T13:35:49;1.48;;;0.20;;
31043;SDS011;17710;52.520;13.352;2023-03-25T13:38:20;2.67;;;0.52;;
31043;SDS011;17710;52.520;13.352;2023-03-25T13:40:53;0.10;;;0.10;;
31043;SDS011;17710;52.520;13.352;2023-03-25T13:43:32;0.50;;;0.20;;
31043;SDS011;17710;52.520;13.352;2023-03-25T13:46:05;2.05;;;0.30;;
31043;SDS011;17710;52.520;13.352;2023-03-25T13:48:37;1.25;;;0.50;;
31043;SDS011;17710;52.520;13.352;2023-03-25T13:51:07;0.32;;;0.32;;
31043;SDS011;17710;52.520;13.352;2023-03-25T13:53:35;2.00;;;0.20;;
31043;SDS011;17710;52.520;13.352;2023-03-25T13:56:16;0.68;;;0.20;;
31043;SDS011;17710;52.520;13.352;2023-03-25T13:59:02;1.23;;;0.30;;
31043;SDS011;17710;52.520;13.352;2023-03-25T14:01:43;0.55;;;0.22;;
31043;SDS011;17710;52.520;13.352;2023-03-25T14:04:39;1.92;;;0.30;;
31043;SDS011;17710;52.520;13.352;2023-03-25T14:07:37;1.40;;;0.20;;
31043;SDS011;17710;52.520;13.352;2023-03-25T14:13:04;1.85;;;0.30;;
31043;SDS011;17710;52.520;13.352;2023-03-25T14:15:36;0.35;;;0.15;;
31043;SDS011;17710;52.520;13.352;2023-03-25T14:18:10;1.02;;;0.35;;
31043;SDS011;17710;52.520;13.352;2023-03-25T14:20:42;3.92;;;0.20;;
31043;SDS011;17710;52.520;13.352;2023-03-25T14:23:11;0.77;;;0.20;;
31043;SDS011;17710;52.520;13.352;2023-03-25T14:25:42;2.03;;;0.30;;
31043;SDS011;17710;52.520;13.352;2023-03-25T14:28:14;2.22;;;0.20;;
31043;SDS011;17710;52.520;13.352;2023-03-25T14:30:45;0.25;;;0.20;;
31043;SDS011;17710;52.520;13.352;2023-03-25T14:36:37;1.10;;;0.40;;
31043;SDS011;17710;52.520;13.352;2023-03-25T14:39:41;1.10;;;0.35;;
31043;SDS011;17710;52.520;13.352;2023-03-25T14:42:10;2.85;;;0.47;;
31043;SDS011;17710;52.520;13.352;2023-03-25T14:44:48;1.67;;;0.40;;
31043;SDS011;17710;52.520;13.352;2023-03-25T14:47:25;3.55;;;0.60;;
31043;SDS011;17710;52.520;13.352;2023-03-25T14:50:00;0.95;;;0.40;;
31043;SDS011;17710;52.520;13.352;2023-03-25T14:52:31;1.30;;;0.50;;
31043;SDS011;17710;52.520;13.352;2023-03-25T14:55:04;0.68;;;0.40;;
31043;SDS011;17710;52.520;13.352;2023-03-25T14:57:37;2.10;;;0.50;;
31043;SDS011;17710;52.520;13.352;2023-03-25T15:00:06;4.10;;;0.60;;
31043;SDS011;17710;52.520;13.352;2023-03-25T15:02:37;1.55;;;0.52;;
31043;SDS011;17710;52.520;13.352;2023-03-25T15:05:12;2.00;;;0.40;;
31043;SDS011;17710;52.520;13.352;2023-03-25T15:07:44;3.53;;;0.47;;
31043;SDS011;17710;52.520;13.352;2023-03-25T15:10:23;1.55;;;0.50;;